createdAt,value
2017-10-16T00:01:56.497Z,13.95
2017-10-16T00:04:23.992Z,13.94
2017-10-16T00:06:51.544Z,13.96
2017-10-16T00:09:18.946Z,13.98
2017-10-16T00:11:46.471Z,13.98
2017-10-16T00:14:13.885Z,13.97
2017-10-16T00:16:41.346Z,13.94
2017-10-16T00:19:08.761Z,13.90
2017-10-16T00:21:36.182Z,13.85
2017-10-16T00:24:03.606Z,13.79
2017-10-16T00:26:31.072Z,13.70
2017-10-16T00:28:58.514Z,13.61
2017-10-16T00:31:26.199Z,13.57
2017-10-16T00:33:53.724Z,13.53
2017-10-16T00:36:21.136Z,13.44
2017-10-16T00:38:48.648Z,13.35
2017-10-16T00:41:16.462Z,13.25
2017-10-16T00:43:43.892Z,13.19
2017-10-16T00:46:11.330Z,13.10
2017-10-16T00:48:38.728Z,13.02
2017-10-16T00:51:06.172Z,13.04
2017-10-16T00:53:33.654Z,13.09
2017-10-16T00:56:01.355Z,13.06
2017-10-16T00:58:28.770Z,13.04
2017-10-16T01:00:56.165Z,13.03
2017-10-16T01:03:23.762Z,13.02
2017-10-16T01:05:51.285Z,13.22
2017-10-16T01:08:18.743Z,13.28
2017-10-16T01:10:46.166Z,13.31
2017-10-16T01:13:13.594Z,13.22
2017-10-16T01:15:41.006Z,13.16
2017-10-16T01:18:08.422Z,13.04
2017-10-16T01:20:35.815Z,12.95
2017-10-16T01:23:03.225Z,12.84
2017-10-16T01:25:30.642Z,12.73
2017-10-16T01:27:58.055Z,12.68
2017-10-16T01:30:25.486Z,12.63
2017-10-16T01:32:52.896Z,12.57
2017-10-16T01:35:20.553Z,12.52
2017-10-16T01:37:47.962Z,12.48
2017-10-16T01:40:15.378Z,12.46
2017-10-16T01:42:42.812Z,12.44
2017-10-16T01:45:10.229Z,12.41
2017-10-16T01:47:37.765Z,12.39
2017-10-16T01:50:05.188Z,12.36
2017-10-16T01:52:32.665Z,12.33
2017-10-16T01:55:00.090Z,12.30
2017-10-16T01:57:27.577Z,12.31
2017-10-16T01:59:55.030Z,12.39
2017-10-16T02:02:22.461Z,12.44
2017-10-16T02:04:49.868Z,12.52
2017-10-16T02:07:17.277Z,12.57
2017-10-16T02:09:44.702Z,12.63
2017-10-16T02:12:12.212Z,12.68
2017-10-16T02:14:39.641Z,12.72
2017-10-16T02:17:07.061Z,12.74
2017-10-16T02:19:34.486Z,12.82
2017-10-16T02:22:01.912Z,12.86
2017-10-16T02:24:29.345Z,12.91
2017-10-16T02:26:56.851Z,12.92
2017-10-16T02:29:24.624Z,12.95
2017-10-16T02:31:52.074Z,13.00
2017-10-16T02:34:19.496Z,13.02
2017-10-16T02:36:46.941Z,13.03
2017-10-16T02:39:14.351Z,13.06
2017-10-16T02:41:41.796Z,13.06
2017-10-16T02:44:09.261Z,13.07
2017-10-16T02:46:36.723Z,13.09
2017-10-16T02:49:04.122Z,13.08
2017-10-16T02:51:31.553Z,13.08
2017-10-16T02:53:58.961Z,13.10
2017-10-16T02:56:26.358Z,13.03
2017-10-16T02:58:53.795Z,12.92
2017-10-16T03:01:21.207Z,12.79
2017-10-16T03:03:48.623Z,12.60
2017-10-16T03:06:16.064Z,12.44
2017-10-16T03:08:43.522Z,12.31
2017-10-16T03:11:10.929Z,12.18
2017-10-16T03:13:38.339Z,12.01
2017-10-16T03:16:05.773Z,11.90
2017-10-16T03:18:33.189Z,11.80
2017-10-16T03:21:00.611Z,11.73
2017-10-16T03:23:28.010Z,11.70
2017-10-16T03:25:55.512Z,11.69
2017-10-16T03:28:22.930Z,11.64
2017-10-16T03:30:50.354Z,11.61
2017-10-16T03:33:17.792Z,11.62
2017-10-16T03:35:46.211Z,11.61
2017-10-16T03:38:13.626Z,11.62
2017-10-16T03:40:41.034Z,11.63
2017-10-16T03:43:08.466Z,11.63
2017-10-16T03:45:35.860Z,11.63
2017-10-16T03:48:03.647Z,11.67
2017-10-16T03:50:31.042Z,11.74
2017-10-16T03:52:58.446Z,11.83
2017-10-16T03:55:25.863Z,11.96
2017-10-16T03:57:53.273Z,12.06
2017-10-16T04:00:20.689Z,12.17
2017-10-16T04:02:48.189Z,12.26
2017-10-16T04:05:15.637Z,12.34
2017-10-16T04:07:43.056Z,12.41
2017-10-16T04:10:10.489Z,12.40
2017-10-16T04:12:37.946Z,12.39
2017-10-16T04:15:05.376Z,12.39
2017-10-16T04:17:32.778Z,12.41
2017-10-16T04:20:00.198Z,12.40
2017-10-16T04:22:27.656Z,12.33
2017-10-16T04:24:55.069Z,12.25
2017-10-16T04:27:22.542Z,12.16
2017-10-16T04:29:49.945Z,12.09
2017-10-16T04:32:17.473Z,12.02
2017-10-16T04:34:45.240Z,11.93
2017-10-16T04:37:12.683Z,11.87
2017-10-16T04:39:40.743Z,11.84
2017-10-16T04:42:08.223Z,11.82
2017-10-16T04:44:35.643Z,11.76
2017-10-16T04:47:03.044Z,11.74
2017-10-16T04:49:30.456Z,11.72
2017-10-16T04:51:57.888Z,11.68
2017-10-16T04:54:25.298Z,11.65
2017-10-16T04:56:52.760Z,11.65
2017-10-16T04:59:20.187Z,11.63
2017-10-16T05:01:47.695Z,11.60
2017-10-16T05:04:15.150Z,11.58
2017-10-16T05:06:42.584Z,11.59
2017-10-16T05:09:09.978Z,11.57
2017-10-16T05:11:37.402Z,11.56
2017-10-16T05:14:04.875Z,11.55
2017-10-16T05:16:32.288Z,11.51
2017-10-16T05:18:59.698Z,11.48
2017-10-16T05:21:27.105Z,11.46
2017-10-16T05:23:54.679Z,11.44
2017-10-16T05:26:22.096Z,11.42
2017-10-16T05:28:49.631Z,11.42
2017-10-16T05:31:17.073Z,11.41
2017-10-16T05:33:44.499Z,11.41
2017-10-16T05:36:11.967Z,11.41
2017-10-16T05:38:39.379Z,11.38
2017-10-16T05:41:07.329Z,11.36
2017-10-16T05:43:34.874Z,11.34
2017-10-16T05:46:02.309Z,11.31
2017-10-16T05:48:29.949Z,11.26
2017-10-16T05:50:57.467Z,11.23
2017-10-16T05:53:24.991Z,11.23
2017-10-16T05:55:52.395Z,11.19
2017-10-16T05:58:19.810Z,11.18
2017-10-16T06:00:47.218Z,11.19
2017-10-16T06:03:14.660Z,11.19
2017-10-16T06:05:42.080Z,11.19
2017-10-16T06:08:09.560Z,11.23
2017-10-16T06:10:36.993Z,11.18
2017-10-16T06:13:04.544Z,11.15
2017-10-16T06:15:31.996Z,11.20
2017-10-16T06:17:59.432Z,11.26
2017-10-16T06:20:26.945Z,11.29
2017-10-16T06:22:54.345Z,11.30
2017-10-16T06:25:21.822Z,11.34
2017-10-16T06:27:49.223Z,11.34
2017-10-16T06:30:16.649Z,11.34
2017-10-16T06:32:44.052Z,11.39
2017-10-16T06:35:11.480Z,11.40
2017-10-16T06:37:38.884Z,11.44
2017-10-16T06:40:06.306Z,11.46
2017-10-16T06:42:33.704Z,11.50
2017-10-16T06:45:01.131Z,11.53
2017-10-16T06:47:28.599Z,11.54
2017-10-16T06:49:56.857Z,11.56
2017-10-16T06:52:24.283Z,11.58
2017-10-16T06:54:51.714Z,11.60
2017-10-16T06:57:19.119Z,11.62
2017-10-16T06:59:46.679Z,11.67
2017-10-16T07:02:14.109Z,11.72
2017-10-16T07:04:41.546Z,11.79
2017-10-16T07:07:09.080Z,11.87
2017-10-16T07:09:36.520Z,11.95
2017-10-16T07:12:03.956Z,12.02
2017-10-16T07:14:31.382Z,12.07
2017-10-16T07:16:58.788Z,12.13
2017-10-16T07:19:26.281Z,12.18
2017-10-16T07:21:53.695Z,12.25
2017-10-16T07:24:21.098Z,12.33
2017-10-16T07:26:48.514Z,12.38
2017-10-16T07:29:15.977Z,12.45
2017-10-16T07:31:43.461Z,12.52
2017-10-16T07:34:10.879Z,12.58
2017-10-16T07:36:38.291Z,12.63
2017-10-16T07:39:05.710Z,12.67
2017-10-16T07:41:33.168Z,12.68
2017-10-16T07:44:00.597Z,12.68
2017-10-16T07:46:28.026Z,12.67
2017-10-16T07:48:55.471Z,12.69
2017-10-16T07:51:22.897Z,12.69
2017-10-16T07:53:50.316Z,12.69
2017-10-16T07:56:17.771Z,12.71
2017-10-16T07:58:45.193Z,22.76
2017-10-16T08:01:12.594Z,12.78
2017-10-16T08:03:40.004Z,12.79
2017-10-16T08:06:07.490Z,12.83
2017-10-16T08:08:34.920Z,12.86
2017-10-16T08:11:02.448Z,12.92
2017-10-16T08:13:29.858Z,12.97
2017-10-16T08:15:57.278Z,12.99
2017-10-16T08:18:25.089Z,13.03
2017-10-16T08:20:52.524Z,13.08
2017-10-16T08:23:19.937Z,13.13
2017-10-16T08:25:47.336Z,13.17
2017-10-16T08:28:14.784Z,13.24
2017-10-16T08:30:42.191Z,13.31
2017-10-16T08:33:10.054Z,13.39
2017-10-16T08:35:37.510Z,13.45
2017-10-16T08:38:05.043Z,13.52
2017-10-16T08:40:32.477Z,13.59
2017-10-16T08:42:59.879Z,13.67
2017-10-16T08:45:27.311Z,13.76
2017-10-16T08:47:54.735Z,13.84
2017-10-16T08:50:22.232Z,13.87
2017-10-16T08:52:49.634Z,13.92
2017-10-16T08:55:17.043Z,13.90
2017-10-16T08:57:44.508Z,13.93
2017-10-16T09:00:11.937Z,13.96
2017-10-16T09:02:39.831Z,14.02
2017-10-16T09:05:07.277Z,14.04
2017-10-16T09:07:34.749Z,14.10
2017-10-16T09:10:02.225Z,14.12
2017-10-16T09:12:29.749Z,14.17
2017-10-16T09:14:57.198Z,14.25
2017-10-16T09:17:24.679Z,14.32
2017-10-16T09:19:52.102Z,14.37
2017-10-16T09:22:19.498Z,14.42
2017-10-16T09:24:46.927Z,14.47
2017-10-16T09:27:14.915Z,14.54
2017-10-16T09:29:42.321Z,14.63
2017-10-16T09:32:09.741Z,14.71
2017-10-16T09:34:37.487Z,14.79
2017-10-16T09:37:04.909Z,14.86
2017-10-16T09:39:32.341Z,14.93
2017-10-16T09:41:59.781Z,15.02
2017-10-16T09:44:27.173Z,15.11
2017-10-16T09:46:54.604Z,15.19
2017-10-16T09:49:22.135Z,15.30
2017-10-16T09:51:49.625Z,15.43
2017-10-16T09:54:17.060Z,15.55
2017-10-16T09:56:44.772Z,15.71
2017-10-16T09:59:12.299Z,15.84
2017-10-16T10:01:39.735Z,16.08
2017-10-16T10:04:07.186Z,16.25
2017-10-16T10:06:34.688Z,16.43
2017-10-16T10:09:02.165Z,16.64
2017-10-16T10:11:29.568Z,16.86
2017-10-16T10:13:57.092Z,17.13
2017-10-16T10:16:24.516Z,17.42
2017-10-16T10:18:51.951Z,17.73
2017-10-16T10:21:19.451Z,18.08
2017-10-16T10:23:47.222Z,18.51
2017-10-16T10:26:14.686Z,18.93
2017-10-16T10:28:42.097Z,19.29
2017-10-16T10:31:09.544Z,19.51
2017-10-16T10:33:37.695Z,19.84
2017-10-16T10:36:05.172Z,20.23
2017-10-16T10:38:32.592Z,20.52
2017-10-16T10:41:00.030Z,20.61
2017-10-16T10:43:27.453Z,20.92
2017-10-16T10:45:54.888Z,21.04
2017-10-16T10:48:22.373Z,21.17
2017-10-16T10:50:49.827Z,21.29
2017-10-16T10:53:17.272Z,21.13
2017-10-16T10:55:44.677Z,21.41
2017-10-16T10:58:12.101Z,21.78
2017-10-16T11:00:39.597Z,21.92
2017-10-16T11:03:07.040Z,22.10
2017-10-16T11:05:34.493Z,22.34
2017-10-16T11:08:01.907Z,22.55
2017-10-16T11:10:29.371Z,22.72
2017-10-16T11:12:56.839Z,22.93
2017-10-16T11:15:24.261Z,23.06
2017-10-16T11:17:51.688Z,23.29
2017-10-16T11:20:19.103Z,23.34
2017-10-16T11:22:46.539Z,23.18
2017-10-16T11:25:14.130Z,23.02
2017-10-16T11:27:41.590Z,23.09
2017-10-16T11:30:09.017Z,22.90
2017-10-16T11:32:36.434Z,22.88
2017-10-16T11:35:03.865Z,23.28
2017-10-16T11:37:31.413Z,23.57
2017-10-16T11:39:58.952Z,23.91
2017-10-16T11:42:26.397Z,24.17
2017-10-16T11:44:53.875Z,24.52
2017-10-16T11:47:21.300Z,24.28
2017-10-16T11:49:48.731Z,24.33
2017-10-16T11:52:16.186Z,24.70
2017-10-16T11:54:43.602Z,25.03
2017-10-16T11:57:11.052Z,25.18
2017-10-16T11:59:38.560Z,25.14
2017-10-16T12:02:05.985Z,25.43
2017-10-16T12:04:33.400Z,25.26
2017-10-16T12:07:00.830Z,25.44
2017-10-16T12:09:28.279Z,25.21
2017-10-16T12:11:55.759Z,25.49
2017-10-16T12:14:23.336Z,25.83
2017-10-16T12:16:50.825Z,26.15
2017-10-16T12:19:28.246Z,26.26
2017-10-16T12:21:55.702Z,26.45
2017-10-16T12:24:23.343Z,26.34
2017-10-16T12:26:50.784Z,26.58
2017-10-16T12:29:18.244Z,26.45
2017-10-16T12:31:45.684Z,26.55
2017-10-16T12:34:13.161Z,26.02
2017-10-16T12:36:40.565Z,26.27
2017-10-16T12:39:08.053Z,25.89
2017-10-16T12:41:35.512Z,25.98
2017-10-16T12:44:02.947Z,26.15
2017-10-16T12:46:30.378Z,26.53
2017-10-16T12:48:57.869Z,26.70
2017-10-16T12:51:25.334Z,26.88
2017-10-16T12:53:52.775Z,27.03
2017-10-16T12:56:20.265Z,27.23
2017-10-16T12:58:47.716Z,27.27
2017-10-16T13:01:15.188Z,27.39
2017-10-16T13:03:42.639Z,27.45
2017-10-16T13:06:10.256Z,27.56
2017-10-16T13:08:37.672Z,27.71
2017-10-16T13:11:05.117Z,27.81
2017-10-16T13:13:32.566Z,27.93
2017-10-16T13:16:00.030Z,27.98
2017-10-16T13:18:27.523Z,27.94
2017-10-16T13:20:54.943Z,27.98
2017-10-16T13:23:22.382Z,28.02
2017-10-16T13:25:49.797Z,28.00
2017-10-16T13:28:17.267Z,27.96
2017-10-16T13:30:44.695Z,27.97
2017-10-16T13:33:12.101Z,27.92
2017-10-16T13:35:39.542Z,27.96
2017-10-16T13:38:07.032Z,27.84
2017-10-16T13:40:34.921Z,27.82
2017-10-16T13:43:02.439Z,27.70
2017-10-16T13:45:29.939Z,27.65
2017-10-16T13:47:57.394Z,27.58
2017-10-16T13:50:24.857Z,27.51
2017-10-16T13:52:52.299Z,27.44
2017-10-16T13:55:19.770Z,27.28
2017-10-16T13:57:47.204Z,27.06
2017-10-16T14:00:14.900Z,26.99
2017-10-16T14:02:42.337Z,26.80
2017-10-16T14:05:09.898Z,26.70
2017-10-16T14:07:37.360Z,26.39
2017-10-16T14:10:04.946Z,26.17
2017-10-16T14:12:32.367Z,25.95
2017-10-16T14:14:59.867Z,25.74
2017-10-16T14:17:27.328Z,25.55
2017-10-16T14:19:54.738Z,25.34
2017-10-16T14:22:22.223Z,25.16
2017-10-16T14:24:49.667Z,24.96
2017-10-16T14:27:17.182Z,24.79
2017-10-16T14:29:44.646Z,24.64
2017-10-16T14:32:12.155Z,24.40
2017-10-16T14:34:39.617Z,24.27
2017-10-16T14:37:07.062Z,24.03
2017-10-16T14:39:34.464Z,23.79
2017-10-16T14:42:01.986Z,23.61
2017-10-16T14:44:29.408Z,23.41
2017-10-16T14:46:56.870Z,23.24
2017-10-16T14:49:24.368Z,23.06
2017-10-16T14:51:51.849Z,22.91
2017-10-16T14:54:19.503Z,22.75
2017-10-16T14:56:46.922Z,22.62
2017-10-16T14:59:14.424Z,22.48
2017-10-16T15:01:41.860Z,22.39
2017-10-16T15:04:09.280Z,22.32
2017-10-16T15:06:36.749Z,22.23
2017-10-16T15:09:04.211Z,22.16
2017-10-16T15:11:31.761Z,22.06
2017-10-16T15:13:59.200Z,21.96
2017-10-16T15:16:26.661Z,21.87
2017-10-16T15:18:56.712Z,21.75
2017-10-16T15:24:30.684Z,21.60
2017-10-16T15:26:58.371Z,21.55
2017-10-16T15:29:25.881Z,21.49
2017-10-16T15:31:53.394Z,21.42
2017-10-16T15:34:20.816Z,21.34
2017-10-16T15:36:48.393Z,21.28
2017-10-16T15:39:16.686Z,21.21
2017-10-16T15:41:44.164Z,21.13
2017-10-16T15:44:11.561Z,21.06
2017-10-16T15:46:38.991Z,20.97
2017-10-16T15:49:07.009Z,20.91
2017-10-16T15:51:34.516Z,20.82
2017-10-16T15:54:01.936Z,20.76
2017-10-16T15:56:29.498Z,20.68
2017-10-16T15:58:56.964Z,20.58
2017-10-16T16:01:24.874Z,20.51
2017-10-16T16:03:52.359Z,20.41
2017-10-16T16:06:19.764Z,20.34
2017-10-16T16:08:47.163Z,20.26
2017-10-16T16:11:14.595Z,20.19
2017-10-16T16:13:42.034Z,20.12
2017-10-16T16:16:09.521Z,20.06
2017-10-16T16:18:36.969Z,19.98
2017-10-16T16:21:04.411Z,19.90
2017-10-16T16:23:31.860Z,19.81
2017-10-16T16:25:59.320Z,19.73
2017-10-16T16:28:26.787Z,19.66
2017-10-16T16:30:54.256Z,19.62
2017-10-16T16:33:21.783Z,19.55
2017-10-16T16:35:49.238Z,19.47
2017-10-16T16:38:16.747Z,19.39
2017-10-16T16:40:44.162Z,19.33
2017-10-16T16:43:11.613Z,19.28
2017-10-16T16:45:39.036Z,19.24
2017-10-16T16:48:06.498Z,19.18
2017-10-16T16:50:34.007Z,19.11
2017-10-16T16:53:01.416Z,19.04
2017-10-16T16:55:28.881Z,18.98
2017-10-16T16:57:56.349Z,18.94
2017-10-16T17:00:23.753Z,18.90
2017-10-16T17:02:51.299Z,18.83
2017-10-16T17:05:18.705Z,18.75
2017-10-16T17:07:46.128Z,18.69
2017-10-16T17:10:13.537Z,18.63
2017-10-16T17:12:40.993Z,18.59
2017-10-16T17:15:08.432Z,18.56
2017-10-16T17:17:35.849Z,18.52
2017-10-16T17:20:03.299Z,18.48
2017-10-16T17:22:30.716Z,18.45
2017-10-16T17:24:58.170Z,18.42
2017-10-16T17:27:25.572Z,18.39
2017-10-16T17:29:53.029Z,18.34
2017-10-16T17:32:20.455Z,18.35
2017-10-16T17:34:47.882Z,18.31
2017-10-16T17:37:15.331Z,18.24
2017-10-16T17:39:42.743Z,18.18
2017-10-16T17:42:10.186Z,18.16
2017-10-16T17:44:37.589Z,18.12
2017-10-16T17:47:05.000Z,18.12
2017-10-16T17:49:32.592Z,18.11
2017-10-16T17:52:00.037Z,18.09
2017-10-16T17:54:27.464Z,18.07
2017-10-16T17:56:54.940Z,18.05
2017-10-16T17:59:22.364Z,18.05
2017-10-16T18:01:49.795Z,18.06
2017-10-16T18:04:17.323Z,18.02
2017-10-16T18:06:44.738Z,17.98
2017-10-16T18:09:13.066Z,17.93
2017-10-16T18:11:40.497Z,17.91
2017-10-16T18:14:07.913Z,17.88
2017-10-16T18:16:35.350Z,17.87
2017-10-16T18:19:02.795Z,17.85
2017-10-16T18:21:30.281Z,17.86
2017-10-16T18:23:57.697Z,17.80
2017-10-16T18:26:25.137Z,17.78
2017-10-16T18:28:52.577Z,17.77
2017-10-16T18:31:20.005Z,17.73
2017-10-16T18:33:47.440Z,17.69
2017-10-16T18:36:14.862Z,17.67
2017-10-16T18:38:42.323Z,17.62
2017-10-16T18:41:09.797Z,17.59
2017-10-16T18:43:37.276Z,17.55
2017-10-16T18:46:04.729Z,17.48
2017-10-16T18:48:32.177Z,17.48
2017-10-16T18:50:59.627Z,17.45
2017-10-16T18:53:27.060Z,17.41
2017-10-16T18:55:54.500Z,17.36
2017-10-16T18:58:21.942Z,17.35
2017-10-16T19:00:49.356Z,17.36
2017-10-16T19:03:16.798Z,17.35
2017-10-16T19:05:44.233Z,17.29
2017-10-16T19:08:11.685Z,17.24
2017-10-16T19:10:39.095Z,17.22
2017-10-16T19:13:06.844Z,17.19
2017-10-16T19:15:34.252Z,17.15
2017-10-16T19:18:02.369Z,17.11
2017-10-16T19:20:29.784Z,17.08
2017-10-16T19:22:57.197Z,17.06
2017-10-16T19:25:24.668Z,17.04
2017-10-16T19:27:52.184Z,17.02
2017-10-16T19:30:19.597Z,17.01
2017-10-16T19:32:47.037Z,16.98
2017-10-16T19:35:14.439Z,17.00
2017-10-16T19:37:41.916Z,16.96
2017-10-16T19:40:09.483Z,16.92
2017-10-16T19:42:37.717Z,16.91
2017-10-16T19:45:05.139Z,16.90
2017-10-16T19:47:32.680Z,16.90
2017-10-16T19:50:00.100Z,16.89
2017-10-16T19:52:27.546Z,16.87
2017-10-16T19:54:55.019Z,16.81
2017-10-16T19:57:22.457Z,16.84
2017-10-16T19:59:49.868Z,16.81
2017-10-16T20:02:17.302Z,16.80
2017-10-16T20:04:44.725Z,16.83
2017-10-16T20:07:12.168Z,16.86
2017-10-16T20:09:39.577Z,16.86
2017-10-16T20:12:07.004Z,16.85
2017-10-16T20:14:34.454Z,16.86
2017-10-16T20:17:01.893Z,16.86
2017-10-16T20:19:29.312Z,16.86
2017-10-16T20:21:56.734Z,16.85
2017-10-16T20:24:24.161Z,16.82
2017-10-16T20:26:51.600Z,16.80
2017-10-16T20:29:19.032Z,16.78
2017-10-16T20:31:46.762Z,16.77
2017-10-16T20:34:14.203Z,16.77
2017-10-16T20:36:41.751Z,16.81
2017-10-16T20:39:14.185Z,16.84
2017-10-16T20:41:42.531Z,16.86
2017-10-16T20:44:10.357Z,16.90
2017-10-16T20:46:38.069Z,16.90
2017-10-16T20:49:05.530Z,16.92
2017-10-16T20:51:32.953Z,16.96
2017-10-16T20:54:00.407Z,16.92
2017-10-16T20:56:33.151Z,16.91
2017-10-16T20:59:00.673Z,16.91
2017-10-16T21:01:28.099Z,16.96
2017-10-16T21:03:55.550Z,16.97
2017-10-16T21:06:22.978Z,16.91
2017-10-16T21:08:50.443Z,16.90
2017-10-16T21:11:17.885Z,16.92
2017-10-16T21:13:46.009Z,16.88
2017-10-16T21:16:18.412Z,16.85
2017-10-16T21:19:02.885Z,16.84
2017-10-16T21:21:33.248Z,16.83
2017-10-16T21:24:07.752Z,16.83
2017-10-16T21:26:39.874Z,16.82
2017-10-16T21:29:07.735Z,16.82
2017-10-16T21:31:35.145Z,16.80
2017-10-16T21:34:02.718Z,16.79
2017-10-16T21:36:30.287Z,16.78
2017-10-16T21:38:57.691Z,16.77
2017-10-16T21:41:25.096Z,16.75
2017-10-16T21:43:52.509Z,16.73
2017-10-16T21:46:19.988Z,16.71
2017-10-16T21:48:47.404Z,16.70
2017-10-16T21:51:14.833Z,16.68
2017-10-16T21:53:42.265Z,16.65
2017-10-16T21:56:09.729Z,16.63
2017-10-16T21:58:37.177Z,16.62
2017-10-16T22:01:04.583Z,16.60
2017-10-16T22:03:32.040Z,16.58
2017-10-16T22:05:59.442Z,16.57
2017-10-16T22:08:26.869Z,16.55
2017-10-16T22:10:54.269Z,16.53
2017-10-16T22:13:22.541Z,16.51
2017-10-16T22:15:49.977Z,16.54
2017-10-16T22:18:17.418Z,16.56
2017-10-16T22:20:45.206Z,16.56
2017-10-16T22:23:12.624Z,16.49
2017-10-16T22:25:40.046Z,16.44
2017-10-16T22:28:07.471Z,16.39
2017-10-16T22:30:34.888Z,16.38
2017-10-16T22:33:02.339Z,16.39
2017-10-16T22:35:29.757Z,16.41
2017-10-16T22:37:57.189Z,16.45
2017-10-16T22:40:24.614Z,16.48
2017-10-16T22:42:52.100Z,16.52
2017-10-16T22:45:19.506Z,16.57
2017-10-16T22:47:46.942Z,16.59
2017-10-16T22:50:14.349Z,16.62
2017-10-16T22:52:41.754Z,16.65
2017-10-16T22:55:13.728Z,16.65
2017-10-16T22:57:41.167Z,16.66
2017-10-16T23:00:08.603Z,16.63
2017-10-16T23:02:36.057Z,16.57
2017-10-16T23:05:03.486Z,16.52
2017-10-16T23:07:31.009Z,16.41
2017-10-16T23:09:58.448Z,16.40
2017-10-16T23:12:25.885Z,16.37
2017-10-16T23:14:53.345Z,16.29
2017-10-16T23:17:20.765Z,16.23
2017-10-16T23:19:48.236Z,16.18
2017-10-16T23:22:15.666Z,16.14
2017-10-16T23:24:43.082Z,16.09
2017-10-16T23:27:10.490Z,16.07
2017-10-16T23:29:37.981Z,16.05
2017-10-16T23:32:05.424Z,16.04
2017-10-16T23:34:32.842Z,16.06
2017-10-16T23:37:00.259Z,16.01
2017-10-16T23:39:27.666Z,15.97
2017-10-16T23:41:55.166Z,15.95
2017-10-16T23:44:22.627Z,15.92
2017-10-16T23:46:50.050Z,15.89
2017-10-16T23:49:17.451Z,15.87
2017-10-16T23:51:44.862Z,15.86
2017-10-16T23:54:12.329Z,15.84
2017-10-16T23:56:39.804Z,15.80
2017-10-16T23:59:07.258Z,15.82
